Temp: 5.3°C   Baro: 1027.6mb
  Wind: 0.9mph   Dir: W (277°)
  Rain: 0.0mm (0.0mm/hr)
  Humidity: 88%

Historic data

Bath Spa Weather Station Historical Data
Daily Summary for December 02, 2022 Units:  Metric    English   Both
Daily Weekly Monthly Yearly Custom
  High: Low: Average:
Temperature: 5.3 °C -0.2 °C 2.5 °C
Dew Point: 4.7 °C -0.6 °C 1.9 °C
Humidity: 97% 91.8% 96%
Wind Speed: 9.8km/h 0km/h 2.7km/h
Wind Gust: 20.9km/h - -
Wind- - East
Pressure: 1029 hPa 1025.6 hPa -
Precipitation: 0 mm    
Historical Graphs
 
 
Tabular Data for December 02, 2022
Time Temperature Dew Point Pressure Wind Wind Speed Wind Gust Humidity Rainfall Rate (Hourly) solar
00:09 0.3 °C -0.1 °C 1029 hPa NE 3.5 km/h 6.4 km/h 97% 0 mm 0 W/m2
00:14 0.3 °C -0.1 °C 1029 hPa NNE 4.5 km/h 6.4 km/h 97% 0 mm 0 W/m2
00:19 0.2 °C -0.2 °C 1029 hPa NNE 3.4 km/h 8 km/h 97% 0 mm 0 W/m2
00:24 0.1 °C -0.3 °C 1029 hPa NNE 2.7 km/h 6.4 km/h 97% 0 mm 0 W/m2
00:29 0.1 °C -0.3 °C 1029 hPa NNE 2.4 km/h 4.8 km/h 97% 0 mm 0 W/m2
00:34 0.1 °C -0.3 °C 1028.7 hPa NE 2.7 km/h 8 km/h 97% 0 mm 0 W/m2
00:39 0.1 °C -0.3 °C 1028.7 hPa NE 3.4 km/h 8 km/h 97% 0 mm 0 W/m2
00:44 0 °C -0.4 °C 1028.7 hPa NNE 3.2 km/h 9.7 km/h 97% 0 mm 0 W/m2
00:49 -0.1 °C -0.4 °C 1028.7 hPa NE 2.4 km/h 6.4 km/h 97% 0 mm 0 W/m2
00:54 0 °C -0.4 °C 1028.7 hPa ENE 2.6 km/h 6.4 km/h 97% 0 mm 0 W/m2
00:59 0 °C -0.4 °C 1028.7 hPa ENE 3.4 km/h 6.4 km/h 97% 0 mm 0 W/m2
01:04 0 °C -0.4 °C 1028.7 hPa ENE 3.2 km/h 6.4 km/h 97% 0 mm 0 W/m2
01:09 0.1 °C -0.3 °C 1028.7 hPa NE 3.1 km/h 6.4 km/h 97% 0 mm 0 W/m2
01:14 0 °C -0.4 °C 1028.7 hPa NE 0.8 km/h 6.4 km/h 97% 0 mm 0 W/m2
01:19 -0.1 °C -0.4 °C 1028.7 hPa NE 2.9 km/h 6.4 km/h 97% 0 mm 0 W/m2
01:24 -0.1 °C -0.5 °C 1028.7 hPa North 1.9 km/h 6.4 km/h 97% 0 mm 0 W/m2
01:29 -0.1 °C -0.5 °C 1028.7 hPa North 0.6 km/h 3.2 km/h 97% 0 mm 0 W/m2
01:34 0 °C -0.4 °C 1028.7 hPa North 0.3 km/h 4.8 km/h 97% 0 mm 0 W/m2
01:39 -0.1 °C -0.4 °C 1028.7 hPa North 1.4 km/h 4.8 km/h 97% 0 mm 0 W/m2
01:44 -0.2 °C -0.6 °C 1028.7 hPa North 1.1 km/h 4.8 km/h 97% 0 mm 0 W/m2
01:49 -0.1 °C -0.5 °C 1028.7 hPa North 1.3 km/h 4.8 km/h 97% 0 mm 0 W/m2
01:54 -0.1 °C -0.5 °C 1028.7 hPa North 1.3 km/h 3.2 km/h 97% 0 mm 0 W/m2
01:59 -0.1 °C -0.5 °C 1028.7 hPa Calm   1.6 km/h 97% 0 mm 0 W/m2
02:04 -0.1 °C -0.5 °C 1028.7 hPa North 0.6 km/h 3.2 km/h 97% 0 mm 0 W/m2
02:09 -0.2 °C -0.6 °C 1028.3 hPa North 0.8 km/h 3.2 km/h 97% 0 mm 0 W/m2
02:14 -0.2 °C -0.6 °C 1028.3 hPa North 0.3 km/h 1.6 km/h 97% 0 mm 0 W/m2
02:19 -0.2 °C -0.6 °C 1028.3 hPa North 0.3 km/h 1.6 km/h 97% 0 mm 0 W/m2
02:24 0 °C -0.4 °C 1028.3 hPa North 0.3 km/h 1.6 km/h 97% 0 mm 0 W/m2
02:29 0.1 °C -0.3 °C 1028.3 hPa ENE 3.2 km/h 4.8 km/h 97% 0 mm 0 W/m2
02:34 0.2 °C -0.2 °C 1028.3 hPa ENE 4.3 km/h 8 km/h 97% 0 mm 0 W/m2
02:39 0.2 °C -0.2 °C 1028.3 hPa ENE 3.2 km/h 4.8 km/h 97% 0 mm 0 W/m2
02:44 0.3 °C -0.1 °C 1028.3 hPa ENE 2.1 km/h 4.8 km/h 97% 0 mm 0 W/m2
02:49 0.3 °C -0.1 °C 1028.3 hPa ENE 0.3 km/h 3.2 km/h 97% 0 mm 0 W/m2
02:54 0.3 °C -0.1 °C 1028.3 hPa ENE 2.1 km/h 4.8 km/h 97% 0 mm 0 W/m2
02:59 0.4 °C 0 °C 1028.3 hPa ENE 4.3 km/h 8 km/h 97% 0 mm 0 W/m2
03:04 0.3 °C -0.1 °C 1028 hPa ESE 3.4 km/h 8 km/h 97% 0 mm 0 W/m2
03:09 0.3 °C -0.1 °C 1028 hPa ESE 2.6 km/h 8 km/h 97% 0 mm 0 W/m2
03:14 0.3 °C -0.1 °C 1028 hPa ESE 2.1 km/h 6.4 km/h 97% 0 mm 0 W/m2
03:19 0.3 °C -0.1 °C 1028 hPa ESE 1.3 km/h 3.2 km/h 97% 0 mm 0 W/m2
03:24 0.3 °C -0.1 °C 1028 hPa ESE 1.9 km/h 4.8 km/h 97% 0 mm 0 W/m2
03:29 0.4 °C 0 °C 1028 hPa ESE 2.7 km/h 6.4 km/h 97% 0 mm 0 W/m2
03:34 0.4 °C 0 °C 1028 hPa ESE 1.4 km/h 4.8 km/h 97% 0 mm 0 W/m2
03:39 0.4 °C 0 °C 1027.7 hPa ESE 1.1 km/h 4.8 km/h 97% 0 mm 0 W/m2
03:44 0.3 °C -0.1 °C 1027.7 hPa ESE 1.9 km/h 3.2 km/h 97% 0 mm 0 W/m2
03:49 0.3 °C -0.1 °C 1027.7 hPa ESE 0.3 km/h 3.2 km/h 97% 0 mm 0 W/m2
03:53 0.3 °C -0.1 °C 1027.7 hPa ESE 0.8 km/h 3.2 km/h 97% 0 mm 0 W/m2
03:59 0.3 °C -0.1 °C 1027.7 hPa ESE 1.8 km/h 4.8 km/h 97% 0 mm 0 W/m2
04:04 0.2 °C -0.2 °C 1027.7 hPa ESE 1.9 km/h 3.2 km/h 97% 0 mm 0 W/m2
04:09 0.2 °C -0.2 °C 1027.7 hPa ESE 1.4 km/h 3.2 km/h 97% 0 mm 0 W/m2
04:14 0.2 °C -0.2 °C 1027.7 hPa ESE 0.6 km/h 3.2 km/h 97% 0 mm 0 W/m2
04:19 0.2 °C -0.2 °C 1027.7 hPa ESE 0.6 km/h 6.4 km/h 97% 0 mm 0 W/m2
04:24 0.2 °C -0.2 °C 1027.7 hPa ESE 1.8 km/h 6.4 km/h 97% 0 mm 0 W/m2
04:29 0.2 °C -0.3 °C 1027.7 hPa ESE 1.6 km/h 6.4 km/h 97% 0 mm 0 W/m2
04:34 0.2 °C -0.2 °C 1027.7 hPa ENE 3.1 km/h 9.7 km/h 97% 0 mm 0 W/m2
04:39 0.2 °C -0.2 °C 1027.7 hPa NE 6.1 km/h 8 km/h 97% 0 mm 0 W/m2
04:44 0.1 °C -0.3 °C 1027.7 hPa NE 2.9 km/h 6.4 km/h 97% 0 mm 0 W/m2
04:49 0.1 °C -0.3 °C 1027.7 hPa NE 2.7 km/h 6.4 km/h 97% 0 mm 0 W/m2
04:54 0.1 °C -0.3 °C 1027.7 hPa NE 2.6 km/h 6.4 km/h 97% 0 mm 0 W/m2
04:59 0.1 °C -0.3 °C 1027.7 hPa NE 1.4 km/h 4.8 km/h 97% 0 mm 0 W/m2
05:04 0.1 °C -0.3 °C 1027.7 hPa East 2.4 km/h 8 km/h 97% 0 mm 0 W/m2
05:09 -0.1 °C -0.5 °C 1027.7 hPa ESE 2.6 km/h 8 km/h 97% 0 mm 0 W/m2
05:14 -0.2 °C -0.6 °C 1027.7 hPa SE 0.6 km/h 4.8 km/h 97% 0 mm 0 W/m2
05:19 -0.2 °C -0.6 °C 1027.3 hPa SE 0.6 km/h 3.2 km/h 97% 0 mm 0 W/m2
05:24 -0.1 °C -0.5 °C 1027.3 hPa SE 1.8 km/h 4.8 km/h 97% 0 mm 0 W/m2
05:29 -0.1 °C -0.5 °C 1027.3 hPa SE 0.6 km/h 4.8 km/h 97% 0 mm 0 W/m2
05:34 0 °C -0.4 °C 1027.3 hPa SE 0.8 km/h 3.2 km/h 97% 0 mm 0 W/m2
05:38 0 °C -0.4 °C 1027.3 hPa SE 1.1 km/h 4.8 km/h 97% 0 mm 0 W/m2
05:44 0.1 °C -0.3 °C 1027.3 hPa SE 2.1 km/h 6.4 km/h 97% 0 mm 0 W/m2
05:49 0.1 °C -0.3 °C 1027.3 hPa SE 2.6 km/h 4.8 km/h 97% 0 mm 0 W/m2
05:54 0.1 °C -0.3 °C 1027.3 hPa SE 0.8 km/h 4.8 km/h 97% 0 mm 0 W/m2
05:59 0.1 °C -0.3 °C 1027.3 hPa SE 0.3 km/h 1.6 km/h 97% 0 mm 0 W/m2
06:04 0 °C -0.4 °C 1027.3 hPa SE 0.8 km/h 3.2 km/h 97% 0 mm 0 W/m2
06:09 -0.1 °C -0.4 °C 1027.3 hPa SE 1.8 km/h 3.2 km/h 97% 0 mm 0 W/m2
06:14 -0.1 °C -0.5 °C 1027.3 hPa SE 1.3 km/h 4.8 km/h 97% 0 mm 0 W/m2
06:19 -0.1 °C -0.5 °C 1027.3 hPa SE 1.8 km/h 4.8 km/h 97% 0 mm 0 W/m2
06:24 -0.1 °C -0.5 °C 1027 hPa SE 1.8 km/h 4.8 km/h 97% 0 mm 0 W/m2
06:29 -0.1 °C -0.4 °C 1027 hPa SE 1.9 km/h 3.2 km/h 97% 0 mm 0 W/m2
06:34 0 °C -0.4 °C 1027.3 hPa SE 1.8 km/h 3.2 km/h 97% 0 mm 0 W/m2
06:39 0.1 °C -0.3 °C 1027 hPa ESE 2.9 km/h 6.4 km/h 97% 0 mm 0 W/m2
06:44 0.1 °C -0.3 °C 1027 hPa ESE 2.1 km/h 6.4 km/h 97% 0 mm 0 W/m2
06:49 0.1 °C -0.3 °C 1027 hPa ESE 0.6 km/h 4.8 km/h 97% 0 mm 0 W/m2
06:54 0.3 °C -0.1 °C 1027 hPa ESE 0.6 km/h 3.2 km/h 97% 0 mm 0 W/m2
06:59 1.5 °C 1.1 °C 1027 hPa ESE 0.6 km/h 1.6 km/h 97% 0 mm 0 W/m2
07:04 2.6 °C 2.2 °C 1027.3 hPa ESE 2.3 km/h 6.4 km/h 97% 0 mm 0 W/m2
07:09 2.8 °C 2.4 °C 1027.3 hPa ESE 0.8 km/h 6.4 km/h 97% 0 mm 0 W/m2
07:14 2.8 °C 2.4 °C 1027.3 hPa ESE 2.6 km/h 6.4 km/h 97% 0 mm 0 W/m2
07:19 1.7 °C 1.3 °C 1027.3 hPa ESE 0.8 km/h 3.2 km/h 97% 0 mm 0 W/m2
07:24 1.2 °C 0.7 °C 1027.3 hPa ESE 1.8 km/h 3.2 km/h 97% 0 mm 0 W/m2
07:29 0.8 °C 0.4 °C 1027.3 hPa ESE 1.8 km/h 3.2 km/h 97% 0 mm 0 W/m2
07:34 0.6 °C 0.2 °C 1027.3 hPa ESE 2.6 km/h 4.8 km/h 97% 0 mm 0 W/m2
07:39 0.4 °C 0 °C 1027.3 hPa ESE 1.8 km/h 4.8 km/h 97% 0 mm 0 W/m2
07:44 0.3 °C -0.1 °C 1027.3 hPa ESE 0.3 km/h 3.2 km/h 97% 0 mm 0 W/m2
07:49 0.3 °C -0.1 °C 1027.3 hPa ESE 0.6 km/h 3.2 km/h 97% 0 mm 0 W/m2
07:54 0.2 °C -0.2 °C 1027.3 hPa ESE 2.3 km/h 4.8 km/h 97% 0 mm 0 W/m2
07:59 0.2 °C -0.2 °C 1027.3 hPa ESE 2.7 km/h 4.8 km/h 97% 0 mm 0 W/m2
08:04 0.2 °C -0.2 °C 1027.3 hPa ESE 1.4 km/h 4.8 km/h 97% 0 mm 0 W/m2
08:09 0.2 °C -0.2 °C 1027.3 hPa ESE 2.9 km/h 4.8 km/h 97% 0 mm 5 W/m2
08:14 0.2 °C -0.2 °C 1027.3 hPa ESE 2.6 km/h 4.8 km/h 97% 0 mm 5 W/m2
08:19 0.2 °C -0.2 °C 1027.3 hPa ESE 1.3 km/h 4.8 km/h 97% 0 mm 7 W/m2
08:24 0.1 °C -0.3 °C 1027.3 hPa ESE 0.3 km/h 3.2 km/h 97% 0 mm 9 W/m2
08:29 0.1 °C -0.3 °C 1027.7 hPa East 1.6 km/h 6.4 km/h 97% 0 mm 12 W/m2
08:34 0.1 °C -0.3 °C 1027.7 hPa East 1.3 km/h 3.2 km/h 97% 0 mm 14 W/m2
08:39 0.1 °C -0.3 °C 1027.7 hPa East 0.8 km/h 1.6 km/h 97% 0 mm 19 W/m2
08:44 0.2 °C -0.2 °C 1027.7 hPa East 2.6 km/h 4.8 km/h 97% 0 mm 19 W/m2
08:49 0.2 °C -0.2 °C 1027.7 hPa East 1.9 km/h 4.8 km/h 97% 0 mm 18 W/m2
08:54 0.2 °C -0.2 °C 1027.7 hPa East 1.1 km/h 3.2 km/h 97% 0 mm 18 W/m2
08:59 0.2 °C -0.2 °C 1027.7 hPa Calm   1.6 km/h 97% 0 mm 25 W/m2
09:04 0.3 °C -0.1 °C 1027.3 hPa East 0.8 km/h 3.2 km/h 97% 0 mm 28 W/m2
09:09 0.3 °C -0.1 °C 1027.3 hPa East 0.3 km/h 1.6 km/h 97% 0 mm 30 W/m2
09:14 0.4 °C 0 °C 1027.3 hPa Calm   1.6 km/h 97% 0 mm 33 W/m2
09:19 0.4 °C 0 °C 1027.7 hPa Calm   3.2 km/h 97% 0 mm 33 W/m2
09:24 0.3 °C -0.2 °C 1027.7 hPa East 0.3 km/h 3.2 km/h 97% 0 mm 32 W/m2
09:29 0.2 °C -0.2 °C 1027.7 hPa East 0.6 km/h 1.6 km/h 97% 0 mm 37 W/m2
09:34 0.3 °C -0.1 °C 1027.7 hPa East 0.3 km/h 1.6 km/h 97% 0 mm 42 W/m2
09:39 0.5 °C 0.1 °C 1027.7 hPa East 0.3 km/h 1.6 km/h 97% 0 mm 44 W/m2
09:44 0.7 °C 0.3 °C 1027.7 hPa Calm     97% 0 mm 49 W/m2
09:49 0.7 °C 0.3 °C 1027.7 hPa Calm     97% 0 mm 49 W/m2
09:54 0.6 °C 0.2 °C 1027.7 hPa Calm     97% 0 mm 47 W/m2
09:59 0.7 °C 0.3 °C 1027.7 hPa Calm     97% 0 mm 51 W/m2
10:04 0.7 °C 0.2 °C 1027.7 hPa East 1.3 km/h 4.8 km/h 97% 0 mm 62 W/m2
10:09 0.7 °C 0.3 °C 1027.7 hPa East 1.1 km/h 3.2 km/h 97% 0 mm 63 W/m2
10:14 0.8 °C 0.4 °C 1027.7 hPa East 1.4 km/h 4.8 km/h 97% 0 mm 65 W/m2
10:19 0.8 °C 0.4 °C 1027.7 hPa East 1.8 km/h 4.8 km/h 97% 0 mm 63 W/m2
10:24 0.7 °C 0.3 °C 1027.7 hPa East 0.3 km/h 3.2 km/h 97% 0 mm 56 W/m2
10:29 0.7 °C 0.3 °C 1027.7 hPa East 0.3 km/h 1.6 km/h 97% 0 mm 65 W/m2
10:34 0.7 °C 0.3 °C 1027.7 hPa East 0.8 km/h 3.2 km/h 97% 0 mm 83 W/m2
10:39 0.8 °C 0.4 °C 1027.7 hPa East 0.3 km/h 3.2 km/h 97% 0 mm 83 W/m2
10:44 0.9 °C 0.5 °C 1027.7 hPa East 0.3 km/h 1.6 km/h 97% 0 mm 88 W/m2
10:49 1 °C 0.6 °C 1027.3 hPa East 1.4 km/h 3.2 km/h 97% 0 mm 86 W/m2
10:54 1.1 °C 0.7 °C 1027.3 hPa East 1.3 km/h 3.2 km/h 97% 0 mm 95 W/m2
10:59 1.1 °C 0.7 °C 1027.3 hPa East 0.6 km/h 3.2 km/h 97% 0 mm 109 W/m2
11:04 1.1 °C 0.7 °C 1027.3 hPa East 0.6 km/h 3.2 km/h 97% 0 mm 109 W/m2
11:09 1.3 °C 0.8 °C 1027.3 hPa East 2.6 km/h 4.8 km/h 97% 0 mm 118 W/m2
11:14 1.4 °C 1 °C 1027.3 hPa East 3.1 km/h 4.8 km/h 97% 0 mm 120 W/m2
11:19 1.6 °C 1.2 °C 1027.3 hPa East 2.7 km/h 8 km/h 97% 0 mm 120 W/m2
11:24 1.7 °C 1.3 °C 1027.3 hPa East 2.1 km/h 8 km/h 97% 0 mm 123 W/m2
11:29 1.7 °C 1.3 °C 1027.3 hPa East 3.5 km/h 6.4 km/h 97% 0 mm 120 W/m2
11:33 1.8 °C 1.4 °C 1027.3 hPa ESE 2.4 km/h 4.8 km/h 97% 0 mm 118 W/m2
11:39 1.9 °C 1.6 °C 1027.3 hPa ESE 0.6 km/h 3.2 km/h 97% 0 mm 111 W/m2
11:44 2 °C 1.6 °C 1027.3 hPa ESE 1.9 km/h 6.4 km/h 97% 0 mm 113 W/m2
11:49 1.8 °C 1.4 °C 1027.3 hPa ESE 2.1 km/h 6.4 km/h 97% 0 mm 109 W/m2
11:54 1.8 °C 1.4 °C 1027.3 hPa ESE 0.6 km/h 4.8 km/h 97% 0 mm 104 W/m2
11:59 1.9 °C 1.5 °C 1027 hPa ESE 2.9 km/h 4.8 km/h 97% 0 mm 105 W/m2
12:04 1.9 °C 1.5 °C 1027 hPa ESE 2.6 km/h 4.8 km/h 97% 0 mm 105 W/m2
12:09 1.9 °C 1.6 °C 1027 hPa ESE 1.1 km/h 3.2 km/h 97% 0 mm 97 W/m2
12:14 2.1 °C 1.7 °C 1027 hPa ESE 0.8 km/h 3.2 km/h 97% 0 mm 100 W/m2
12:19 2.2 °C 1.8 °C 1027 hPa ESE 0.3 km/h 3.2 km/h 97% 0 mm 100 W/m2
12:24 2.2 °C 1.8 °C 1026.6 hPa ESE 0.8 km/h 3.2 km/h 97% 0 mm 88 W/m2
12:29 2.3 °C 1.9 °C 1026.6 hPa ESE 1.9 km/h 3.2 km/h 97% 0 mm 97 W/m2
12:34 2.3 °C 1.9 °C 1026.6 hPa ESE 0.3 km/h 3.2 km/h 97% 0 mm 116 W/m2
12:39 2.6 °C 2.2 °C 1026.6 hPa ESE 1.8 km/h 3.2 km/h 97% 0 mm 118 W/m2
12:44 2.6 °C 2.2 °C 1026.6 hPa ESE 1.1 km/h 3.2 km/h 97% 0 mm 123 W/m2
12:49 2.7 °C 2.3 °C 1026.6 hPa ESE 2.3 km/h 4.8 km/h 97% 0 mm 123 W/m2
12:54 2.8 °C 2.4 °C 1026.6 hPa ESE 0.6 km/h 3.2 km/h 97% 0 mm 95 W/m2
12:59 2.9 °C 2.6 °C 1026.6 hPa ESE 0.6 km/h 3.2 km/h 97% 0 mm 74 W/m2
13:04 3.1 °C 2.7 °C 1026.6 hPa Calm     97% 0 mm 77 W/m2
13:09 3.2 °C 2.8 °C 1026.3 hPa ESE 0.3 km/h 3.2 km/h 97% 0 mm 144 W/m2
13:14 3.3 °C 2.9 °C 1026.3 hPa Calm   1.6 km/h 97% 0 mm 199 W/m2
13:19 3.4 °C 3 °C 1026.3 hPa ESE 0.6 km/h 1.6 km/h 97% 0 mm 148 W/m2
13:24 3.6 °C 3.2 °C 1026.3 hPa ESE 1.1 km/h 4.8 km/h 97% 0 mm 120 W/m2
13:29 3.6 °C 3.2 °C 1026.3 hPa ESE 1.9 km/h 6.4 km/h 97% 0 mm 84 W/m2
13:34 3.8 °C 3.4 °C 1026.3 hPa ESE 1.3 km/h 4.8 km/h 97% 0 mm 76 W/m2
13:39 4.1 °C 3.7 °C 1026.3 hPa ESE 3.5 km/h 6.4 km/h 97% 0 mm 88 W/m2
13:44 4.1 °C 3.7 °C 1026.3 hPa ESE 2.6 km/h 6.4 km/h 97% 0 mm 114 W/m2
13:49 4.2 °C 3.8 °C 1026.3 hPa ENE 3.9 km/h 11.3 km/h 97% 0 mm 90 W/m2
13:54 4.3 °C 3.9 °C 1026 hPa NE 2.3 km/h 11.3 km/h 97% 0 mm 95 W/m2
13:59 4.4 °C 4 °C 1026 hPa NE 2.1 km/h 4.8 km/h 97% 0 mm 86 W/m2
14:04 4.5 °C 4.1 °C 1026 hPa NE 1.1 km/h 4.8 km/h 97% 0 mm 81 W/m2
14:09 4.5 °C 4.1 °C 1026 hPa NNE 3.7 km/h 8 km/h 97% 0 mm 79 W/m2
14:14 4.5 °C 4.1 °C 1026 hPa North 1.9 km/h 8 km/h 97% 0 mm 65 W/m2
14:19 4.6 °C 4.2 °C 1026 hPa North 1.6 km/h 4.8 km/h 97% 0 mm 56 W/m2
14:24 4.6 °C 4.2 °C 1026 hPa North 1.9 km/h 4.8 km/h 97% 0 mm 44 W/m2
14:29 4.6 °C 4.2 °C 1026 hPa NNE 3.7 km/h 9.7 km/h 97% 0 mm 65 W/m2
14:34 4.6 °C 4.2 °C 1026 hPa ENE 5.8 km/h 12.9 km/h 97% 0 mm 49 W/m2
14:39 4.6 °C 4.2 °C 1026 hPa NE 6.9 km/h 16.1 km/h 97% 0 mm 33 W/m2
14:44 4.6 °C 4.2 °C 1026 hPa NE 6.4 km/h 14.5 km/h 97% 0 mm 40 W/m2
14:48 4.7 °C 4.3 °C 1026 hPa NNE 4.3 km/h 12.9 km/h 97% 0 mm 46 W/m2
14:54 4.7 °C 4.3 °C 1026 hPa NNE 3.5 km/h 9.7 km/h 97% 0 mm 42 W/m2
14:59 4.7 °C 4.3 °C 1026 hPa NNE 4.7 km/h 8 km/h 97% 0 mm 44 W/m2
15:04 4.8 °C 4.4 °C 1026 hPa NE 3.2 km/h 8 km/h 97% 0 mm 39 W/m2
15:09 4.8 °C 4.4 °C 1026 hPa NE 2.7 km/h 4.8 km/h 97% 0 mm 42 W/m2
15:14 4.9 °C 4.5 °C 1026 hPa NE 0.8 km/h 4.8 km/h 97% 0 mm 32 W/m2
15:19 4.9 °C 4.5 °C 1026 hPa NE 0.3 km/h 4.8 km/h 97% 0 mm 30 W/m2
15:24 4.9 °C 4.5 °C 1026 hPa NE 0.8 km/h 3.2 km/h 97% 0 mm 16 W/m2
15:29 4.9 °C 4.6 °C 1026 hPa NE 2.1 km/h 6.4 km/h 97% 0 mm 11 W/m2
15:34 5 °C 4.6 °C 1026 hPa NE 2.1 km/h 6.4 km/h 97% 0 mm 9 W/m2
15:39 5 °C 4.6 °C 1026 hPa NE 2.9 km/h 6.4 km/h 97% 0 mm 7 W/m2
15:44 5 °C 4.6 °C 1026 hPa NNE 5.3 km/h 11.3 km/h 97% 0 mm 7 W/m2
15:49 5 °C 4.6 °C 1026 hPa North 7.4 km/h 12.9 km/h 97% 0 mm 5 W/m2
15:54 5.1 °C 4.6 °C 1026 hPa NNE 5.5 km/h 9.7 km/h 96.6% 0 mm 0 W/m2
15:58 5.1 °C 4.5 °C 1026 hPa North 5.1 km/h 14.5 km/h 96% 0 mm 0 W/m2
16:04 5.2 °C 4.6 °C 1026 hPa NE 5.5 km/h 11.3 km/h 96% 0 mm 0 W/m2
16:09 5.2 °C 4.6 °C 1026 hPa NNE 2.7 km/h 12.9 km/h 96% 0 mm 0 W/m2
16:14 5.2 °C 4.6 °C 1026 hPa NNE 3.7 km/h 8 km/h 96% 0 mm 0 W/m2
16:19 5.3 °C 4.7 °C 1026 hPa NNE 3.9 km/h 8 km/h 96% 0 mm 0 W/m2
16:24 5.3 °C 4.7 °C 1026 hPa ENE 5.3 km/h 12.9 km/h 96% 0 mm 0 W/m2
16:29 5.3 °C 4.7 °C 1026 hPa East 0.8 km/h 8 km/h 96% 0 mm 0 W/m2
16:34 5.3 °C 4.7 °C 1026 hPa NNW 2.7 km/h 8 km/h 96% 0 mm 0 W/m2
16:39 5.2 °C 4.7 °C 1026 hPa NNW 1.4 km/h 6.4 km/h 96% 0 mm 0 W/m2
16:44 5.2 °C 4.6 °C 1026 hPa NNW 3.4 km/h 6.4 km/h 96% 0 mm 0 W/m2
16:49 5.2 °C 4.6 °C 1026 hPa NNW 1.3 km/h 4.8 km/h 96% 0 mm 0 W/m2
16:54 5.2 °C 4.6 °C 1026 hPa North 3.4 km/h 11.3 km/h 96% 0 mm 0 W/m2
16:59 5.1 °C 4.5 °C 1026 hPa NNW 2.1 km/h 6.4 km/h 96% 0 mm 0 W/m2
17:04 5.1 °C 4.5 °C 1026.3 hPa NNE 3.7 km/h 8 km/h 96% 0 mm 0 W/m2
17:09 5.2 °C 4.6 °C 1026.3 hPa NNE 2.7 km/h 8 km/h 96% 0 mm 0 W/m2
17:14 5.2 °C 4.6 °C 1026.3 hPa NE 2.9 km/h 9.7 km/h 96% 0 mm 0 W/m2
17:19 5.1 °C 4.5 °C 1026.3 hPa North 3.9 km/h 9.7 km/h 96% 0 mm 0 W/m2
17:24 5.2 °C 4.6 °C 1026.3 hPa NNE 2.7 km/h 6.4 km/h 96% 0 mm 0 W/m2
17:29 5.1 °C 4.5 °C 1026.3 hPa NNE 2.9 km/h 6.4 km/h 96% 0 mm 0 W/m2
17:34 5.1 °C 4.5 °C 1026.3 hPa NE 2.6 km/h 11.3 km/h 96% 0 mm 0 W/m2
17:39 5.1 °C 4.4 °C 1026 hPa NNE 3.2 km/h 11.3 km/h 96% 0 mm 0 W/m2
17:44 4.9 °C 4.3 °C 1026.3 hPa NE 4.7 km/h 12.9 km/h 95.2% 0 mm 0 W/m2
17:49 4.9 °C 4.2 °C 1026 hPa NNE 5.3 km/h 11.3 km/h 95% 0 mm 0 W/m2
17:54 4.9 °C 4.2 °C 1026.3 hPa NE 6.4 km/h 12.9 km/h 95% 0 mm 0 W/m2
17:59 4.9 °C 4.2 °C 1026.3 hPa NNE 6.8 km/h 14.5 km/h 95% 0 mm 0 W/m2
18:04 4.9 °C 4.2 °C 1026.3 hPa NNE 5.8 km/h 12.9 km/h 95% 0 mm 0 W/m2
18:09 4.9 °C 4.3 °C 1026.3 hPa NNE 5.8 km/h 14.5 km/h 95% 0 mm 0 W/m2
18:14 5 °C 4.3 °C 1026.3 hPa NNE 1.9 km/h 6.4 km/h 95% 0 mm 0 W/m2
18:19 5 °C 4.3 °C 1026.3 hPa NE 7.9 km/h 14.5 km/h 95% 0 mm 0 W/m2
18:24 5 °C 4.3 °C 1026.3 hPa NE 6.8 km/h 14.5 km/h 95% 0 mm 0 W/m2
18:29 5 °C 4.3 °C 1026.3 hPa NE 3.4 km/h 8 km/h 95% 0 mm 0 W/m2
18:34 4.9 °C 4.2 °C 1026.3 hPa North 2.1 km/h 8 km/h 95% 0 mm 0 W/m2
18:38 5 °C 4.3 °C 1026.3 hPa NNE 6.4 km/h 9.7 km/h 95% 0 mm 0 W/m2
18:44 5 °C 4.3 °C 1026.3 hPa NNE 5.6 km/h 12.9 km/h 95% 0 mm 0 W/m2
18:49 5.1 °C 4.4 °C 1026.3 hPa NNE 3.9 km/h 12.9 km/h 95% 0 mm 0 W/m2
18:54 5.2 °C 4.4 °C 1026 hPa NNE 6 km/h 17.7 km/h 95% 0 mm 0 W/m2
18:59 5.2 °C 4.5 °C 1026 hPa North 4.5 km/h 14.5 km/h 95% 0 mm 0 W/m2
19:04 5.2 °C 4.5 °C 1026 hPa NNE 8.2 km/h 14.5 km/h 95% 0 mm 0 W/m2
19:09 5.1 °C 4.3 °C 1026 hPa NNE 4 km/h 14.5 km/h 94.2% 0 mm 0 W/m2
19:14 5.1 °C 4.2 °C 1026 hPa NNE 7.9 km/h 20.9 km/h 94% 0 mm 0 W/m2
19:19 5.1 °C 4.3 °C 1026 hPa NNE 8 km/h 17.7 km/h 94.4% 0 mm 0 W/m2
19:24 5.1 °C 4.3 °C 1026 hPa ENE 5.3 km/h 11.3 km/h 94.4% 0 mm 0 W/m2
19:29 5.1 °C 4.2 °C 1026 hPa NE 9.8 km/h 14.5 km/h 94% 0 mm 0 W/m2
19:34 5.1 °C 4.2 °C 1026 hPa NNE 5.8 km/h 12.9 km/h 94% 0 mm 0 W/m2
19:39 5.1 °C 4.2 °C 1026 hPa NE 8 km/h 16.1 km/h 94% 0 mm 0 W/m2
19:44 5.1 °C 4.2 °C 1026 hPa NE 7.2 km/h 19.3 km/h 94% 0 mm 0 W/m2
19:49 5.1 °C 4.2 °C 1026 hPa North 5.5 km/h 11.3 km/h 94% 0 mm 0 W/m2
19:54 5 °C 4.1 °C 1026 hPa NE 7.4 km/h 12.9 km/h 94% 0 mm 0 W/m2
19:59 5 °C 4.1 °C 1026 hPa NNE 9.3 km/h 16.1 km/h 94% 0 mm 0 W/m2
20:04 5 °C 4.1 °C 1026 hPa NNE 8 km/h 20.9 km/h 94% 0 mm 0 W/m2
20:09 4.9 °C 4 °C 1026 hPa NNE 8.7 km/h 12.9 km/h 94% 0 mm 0 W/m2
20:14 4.9 °C 4 °C 1026 hPa NE 5.8 km/h 14.5 km/h 94% 0 mm 0 W/m2
20:19 4.9 °C 4 °C 1026 hPa NE 7.2 km/h 16.1 km/h 94% 0 mm 0 W/m2
20:24 4.9 °C 4 °C 1026 hPa NNE 6.6 km/h 14.5 km/h 94% 0 mm 0 W/m2
20:29 4.9 °C 4 °C 1026 hPa NNE 7.2 km/h 14.5 km/h 94% 0 mm 0 W/m2
20:34 4.9 °C 4.1 °C 1026 hPa NNE 3.5 km/h 9.7 km/h 94% 0 mm 0 W/m2
20:39 4.9 °C 3.9 °C 1026 hPa NE 5 km/h 14.5 km/h 93.6% 0 mm 0 W/m2
20:44 4.9 °C 3.9 °C 1026 hPa NNE 5.8 km/h 16.1 km/h 93% 0 mm 0 W/m2
20:49 4.8 °C 3.8 °C 1026 hPa NNE 4.7 km/h 11.3 km/h 93% 0 mm 0 W/m2
20:54 4.8 °C 3.8 °C 1026 hPa North 6.6 km/h 14.5 km/h 93% 0 mm 0 W/m2
20:59 4.8 °C 3.8 °C 1026 hPa NNE 6 km/h 14.5 km/h 93% 0 mm 0 W/m2
21:04 4.7 °C 3.7 °C 1026 hPa NE 9 km/h 19.3 km/h 93% 0 mm 0 W/m2
21:09 4.7 °C 3.7 °C 1026 hPa NNE 5.8 km/h 16.1 km/h 93% 0 mm 0 W/m2
21:14 4.8 °C 3.8 °C 1026 hPa NE 7.1 km/h 20.9 km/h 93% 0 mm 0 W/m2
21:19 4.7 °C 3.7 °C 1026 hPa NE 4 km/h 11.3 km/h 93% 0 mm 0 W/m2
21:23 4.7 °C 3.7 °C 1026 hPa NE 2.7 km/h 11.3 km/h 93% 0 mm 0 W/m2
21:29 4.7 °C 3.7 °C 1026 hPa ENE 4.7 km/h 14.5 km/h 93% 0 mm 0 W/m2
21:34 4.7 °C 3.7 °C 1026 hPa NE 4.3 km/h 12.9 km/h 93% 0 mm 0 W/m2
21:39 4.6 °C 3.6 °C 1026 hPa ENE 3.4 km/h 12.9 km/h 93% 0 mm 0 W/m2
21:44 4.6 °C 3.6 °C 1026 hPa ENE 2.7 km/h 11.3 km/h 93% 0 mm 0 W/m2
21:49 4.5 °C 3.5 °C 1026 hPa NNE 3.9 km/h 9.7 km/h 93% 0 mm 0 W/m2
21:54 4.4 °C 3.4 °C 1026 hPa NNE 2.6 km/h 6.4 km/h 93% 0 mm 0 W/m2
21:59 4.4 °C 3.4 °C 1026 hPa NNE 1.4 km/h 4.8 km/h 93% 0 mm 0 W/m2
22:04 4.3 °C 3.3 °C 1026 hPa NNE 0.6 km/h 3.2 km/h 93% 0 mm 0 W/m2
22:09 4.2 °C 3.2 °C 1025.6 hPa NNE 1.6 km/h 4.8 km/h 92.6% 0 mm 0 W/m2
22:14 4.2 °C 2.9 °C 1026 hPa NNE 1.4 km/h 3.2 km/h 92% 0 mm 0 W/m2
22:19 4.1 °C 2.9 °C 1026 hPa NNE 1.9 km/h 6.4 km/h 92% 0 mm 0 W/m2
22:24 4.1 °C 2.8 °C 1026 hPa NNE 0.3 km/h 3.2 km/h 92% 0 mm 0 W/m2
22:29 3.9 °C 2.7 °C 1025.6 hPa WSW 0.8 km/h 6.4 km/h 92% 0 mm 0 W/m2
22:34 3.9 °C 2.7 °C 1025.6 hPa WSW 1.9 km/h 3.2 km/h 92% 0 mm 0 W/m2
22:39 3.9 °C 2.7 °C 1025.6 hPa WSW 1.4 km/h 4.8 km/h 92% 0 mm 0 W/m2
22:44 3.8 °C 2.6 °C 1026 hPa NW 4.2 km/h 6.4 km/h 92% 0 mm 0 W/m2
22:49 3.8 °C 2.6 °C 1026 hPa NNE 1.3 km/h 6.4 km/h 92% 0 mm 0 W/m2
22:54 3.8 °C 2.7 °C 1026 hPa NNE 5.1 km/h 9.7 km/h 92% 0 mm 0 W/m2
22:59 3.9 °C 2.7 °C 1026 hPa NE 4.3 km/h 11.3 km/h 92% 0 mm 0 W/m2
23:04 4.1 °C 2.9 °C 1026 hPa NE 1.6 km/h 11.3 km/h 92% 0 mm 0 W/m2
23:09 4.2 °C 3.1 °C 1025.6 hPa NE 3.5 km/h 14.5 km/h 92.6% 0 mm 0 W/m2
23:14 4.3 °C 3.2 °C 1025.6 hPa NE 4.7 km/h 14.5 km/h 92.6% 0 mm 0 W/m2
23:19 4.4 °C 3.2 °C 1025.6 hPa NE 5.3 km/h 11.3 km/h 92% 0 mm 0 W/m2
23:24 4.6 °C 3.3 °C 1025.6 hPa North 7.1 km/h 14.5 km/h 92% 0 mm 0 W/m2
23:29 4.6 °C 3.4 °C 1025.6 hPa ENE 4.5 km/h 8 km/h 92% 0 mm 0 W/m2
23:34 4.7 °C 3.4 °C 1025.6 hPa North 6.1 km/h 11.3 km/h 92% 0 mm 0 W/m2
23:39 4.7 °C 3.5 °C 1025.6 hPa NE 4.8 km/h 14.5 km/h 92% 0 mm 0 W/m2
23:44 4.7 °C 3.5 °C 1025.6 hPa NNE 3.9 km/h 9.7 km/h 92% 0 mm 0 W/m2
23:49 4.7 °C 3.5 °C 1025.6 hPa NE 3.1 km/h 12.9 km/h 92% 0 mm 0 W/m2
23:54 4.7 °C 3.5 °C 1025.6 hPa NNE 3.5 km/h 6.4 km/h 92% 0 mm 0 W/m2
23:59 4.7 °C 3.5 °C 1025.6 hPa North 4.8 km/h 11.3 km/h 91.8% 0 mm 0 W/m2
Bath Spa Weather
Compliments of Weather Underground - 2 mb